Time;durP1;ratioP1;P1;durP2;ratioP2;P2;SDS_P1;SDS_P2;PMS_P1;PMS_P2;Temp;Humidity;BMP_temperature;BMP_pressure;BME280_temperature;BME280_humidity;BME280_pressure;Samples;Min_cycle;Max_cycle;Signal;HPM_P1;HPM_P2
2023/05/01 00:01:21;;;;;;;7.03;2.67;;;8.90;99.90;;;;;;5013296;28;20050;-71
2023/05/01 00:03:47;;;;;;;4.47;2.67;;;8.80;99.90;;;;;;4995976;28;20038;-71
2023/05/01 00:06:12;;;;;;;5.10;3.08;;;8.80;99.90;;;;;;5013454;28;20129;-71
2023/05/01 00:08:38;;;;;;;4.07;2.80;;;8.70;99.90;;;;;;5013656;28;20462;-70
2023/05/01 00:11:08;;;;;;;5.30;3.03;;;8.80;99.90;;;;;;5013491;28;20077;-70
2023/05/01 00:13:34;;;;;;;6.22;3.05;;;8.70;99.90;;;;;;5013877;28;20394;-71
2023/05/01 00:16:00;;;;;;;4.63;2.60;;;8.80;99.90;;;;;;5012718;28;20042;-71
2023/05/01 00:18:25;;;;;;;5.18;3.25;;;8.90;99.90;;;;;;4979725;28;20534;-71
2023/05/01 00:20:51;;;;;;;5.85;2.60;;;9.00;99.90;;;;;;5013380;28;20050;-71
2023/05/01 00:23:17;;;;;;;6.18;2.90;;;8.70;99.90;;;;;;4996279;28;20054;-70
2023/05/01 00:25:43;;;;;;;5.78;3.10;;;8.70;99.90;;;;;;5015472;28;20141;-70
2023/05/01 00:28:08;;;;;;;4.78;2.70;;;8.70;99.90;;;;;;5017297;28;20469;-70
2023/05/01 00:30:34;;;;;;;6.68;3.22;;;8.60;99.90;;;;;;5015844;28;20089;-71
2023/05/01 00:33:00;;;;;;;4.50;2.67;;;8.70;99.90;;;;;;5015567;28;20038;-70
2023/05/01 00:35:26;;;;;;;7.68;3.45;;;8.70;99.90;;;;;;5015466;28;20140;-71
2023/05/01 00:37:52;;;;;;;7.15;3.08;;;8.60;99.90;;;;;;5016664;28;20050;-72
2023/05/01 00:40:18;;;;;;;8.63;2.90;;;8.60;99.90;;;;;;5015994;28;20184;-71
2023/05/01 00:42:44;;;;;;;7.72;3.10;;;8.60;99.90;;;;;;5015491;28;20037;-71
2023/05/01 00:45:10;;;;;;;7.00;3.35;;;8.60;99.90;;;;;;5016569;28;20140;-71
2023/05/01 00:47:37;;;;;;;6.38;3.03;;;8.60;99.90;;;;;;5016903;28;20049;-71
2023/05/01 00:50:04;;;;;;;5.43;2.63;;;8.80;99.90;;;;;;5016956;28;20087;-71
2023/05/01 00:52:30;;;;;;;6.72;2.97;;;8.60;99.90;;;;;;5016301;28;20038;-71
2023/05/01 00:54:57;;;;;;;6.00;2.90;;;8.70;99.90;;;;;;5017131;28;20112;-72
2023/05/01 00:57:22;;;;;;;4.53;3.03;;;8.80;99.90;;;;;;5016313;28;20069;-74
2023/05/01 00:59:48;;;;;;;5.63;3.10;;;8.50;99.90;;;;;;5016198;28;20486;-72
2023/05/01 01:02:15;;;;;;;3.88;2.95;;;8.50;99.90;;;;;;5016182;28;20042;-72
2023/05/01 01:04:45;;;;;;;7.20;2.97;;;8.50;99.90;;;;;;5016958;28;20050;-72
2023/05/01 01:07:20;;;;;;;5.03;3.13;;;8.50;99.90;;;;;;5016078;28;20045;-72
2023/05/01 01:10:04;;;;;;;7.43;2.95;;;8.40;99.90;;;;;;5016881;28;20497;-72
2023/05/01 01:12:50;;;;;;;5.45;2.88;;;8.40;99.90;;;;;;5015095;28;20422;-72
2023/05/01 01:15:44;;;;;;;4.07;2.65;;;8.40;99.90;;;;;;5016002;28;20046;-72
2023/05/01 01:18:19;;;;;;;5.75;2.97;;;8.40;99.90;;;;;;5016317;28;20125;-72
2023/05/01 01:21:09;;;;;;;5.15;2.97;;;8.40;99.90;;;;;;5014916;28;20101;-72
2023/05/01 01:23:54;;;;;;;4.40;3.17;;;8.40;99.90;;;;;;5016395;28;20437;-72
2023/05/01 01:26:36;;;;;;;5.75;3.05;;;8.30;99.90;;;;;;4998675;28;20054;-72
2023/05/01 01:29:02;;;;;;;5.88;3.22;;;8.20;99.90;;;;;;5016454;28;20049;-71
2023/05/01 01:31:44;;;;;;;6.55;3.55;;;8.30;99.90;;;;;;5015636;28;20057;-71
2023/05/01 01:34:32;;;;;;;6.68;3.40;;;8.30;99.90;;;;;;5016233;28;20050;-71
2023/05/01 01:37:19;;;;;;;4.88;3.45;;;8.30;99.90;;;;;;5015008;28;20458;-71
2023/05/01 01:39:54;;;;;;;4.60;2.80;;;8.20;99.90;;;;;;5014733;28;20042;-71
2023/05/01 01:42:25;;;;;;;5.13;3.08;;;8.20;99.90;;;;;;4998457;28;20046;-71
2023/05/01 01:44:54;;;;;;;8.93;3.90;;;8.20;99.90;;;;;;5016227;28;20046;-71
2023/05/01 01:47:30;;;;;;;5.57;3.17;;;8.10;99.90;;;;;;5014179;28;20080;-72
2023/05/01 01:50:00;;;;;;;5.55;3.22;;;8.10;99.90;;;;;;5015605;28;20440;-71
2023/05/01 01:52:28;;;;;;;7.88;3.22;;;8.00;99.90;;;;;;5014843;28;20073;-71
2023/05/01 01:55:05;;;;;;;5.72;3.50;;;7.90;99.90;;;;;;5015253;28;20124;-71
2023/05/01 01:57:32;;;;;;;8.95;3.80;;;8.20;99.90;;;;;;5014863;28;20083;-71
2023/05/01 01:59:57;;;;;;;6.13;3.35;;;7.90;99.90;;;;;;5014144;28;20056;-71
2023/05/01 02:02:25;;;;;;;5.63;3.45;;;7.90;99.90;;;;;;5015579;28;20042;-71
2023/05/01 02:04:53;;;;;;;6.65;3.63;;;7.90;99.90;;;;;;5015018;28;20050;-71
2023/05/01 02:07:20;;;;;;;11.05;3.17;;;7.90;99.90;;;;;;4997402;28;20497;-71
2023/05/01 02:09:49;;;;;;;5.65;3.42;;;7.80;99.90;;;;;;5015209;28;20375;-72
2023/05/01 02:12:15;;;;;;;6.55;3.47;;;7.90;99.90;;;;;;5015939;28;20049;-72
2023/05/01 02:14:43;;;;;;;7.97;3.55;;;7.90;99.90;;;;;;5014927;28;20096;-71
2023/05/01 02:17:09;;;;;;;5.80;3.50;;;7.70;99.90;;;;;;5013657;28;20441;-72
2023/05/01 02:19:40;;;;;;;6.82;4.00;;;7.70;99.90;;;;;;5014761;28;20445;-71
2023/05/01 02:22:08;;;;;;;6.07;3.53;;;7.90;99.90;;;;;;5014812;28;20538;-71
2023/05/01 02:24:37;;;;;;;7.60;3.10;;;7.70;99.90;;;;;;5013533;28;20061;-71
2023/05/01 02:27:19;;;;;;;5.93;3.50;;;8.00;99.90;;;;;;5014645;28;20054;-71
2023/05/01 02:29:44;;;;;;;6.88;3.38;;;7.70;99.90;;;;;;5015116;28;20394;-71
2023/05/01 02:32:11;;;;;;;8.85;3.58;;;7.90;99.90;;;;;;5014501;28;20038;-71
2023/05/01 02:34:37;;;;;;;7.50;3.30;;;7.50;99.90;;;;;;5014548;28;20410;-71
2023/05/01 02:37:09;;;;;;;6.63;3.40;;;7.50;99.90;;;;;;5014475;28;20045;-71
2023/05/01 02:39:36;;;;;;;5.10;3.45;;;7.60;99.90;;;;;;5014431;28;20045;-71
2023/05/01 02:42:03;;;;;;;5.03;3.40;;;7.80;99.90;;;;;;5014211;28;20050;-71
2023/05/01 02:44:39;;;;;;;6.50;4.05;;;7.50;99.90;;;;;;5014629;28;20439;-71
2023/05/01 02:47:07;;;;;;;7.38;3.78;;;7.50;99.90;;;;;;5013968;28;20527;-71
2023/05/01 02:49:35;;;;;;;4.65;3.40;;;7.80;99.90;;;;;;5014303;28;20042;-71
2023/05/01 02:52:01;;;;;;;6.70;3.80;;;7.70;99.90;;;;;;5014202;28;20135;-70
2023/05/01 02:54:28;;;;;;;7.18;4.03;;;7.70;99.90;;;;;;5014810;28;20057;-70
2023/05/01 02:56:54;;;;;;;6.70;4.07;;;7.30;99.90;;;;;;5014113;28;20482;-72
2023/05/01 02:59:20;;;;;;;7.13;3.63;;;7.60;99.90;;;;;;5013757;28;20586;-71
2023/05/01 03:01:46;;;;;;;7.50;4.10;;;7.40;99.90;;;;;;4980820;28;20132;-71
2023/05/01 03:04:11;;;;;;;7.03;3.42;;;7.50;99.90;;;;;;5013928;28;20104;-71
2023/05/01 03:06:37;;;;;;;7.43;3.85;;;7.40;99.90;;;;;;5014009;28;20129;-71
2023/05/01 03:09:03;;;;;;;6.57;3.95;;;7.20;99.90;;;;;;5013040;28;20054;-71
2023/05/01 03:11:29;;;;;;;4.72;3.55;;;7.50;99.90;;;;;;5014198;28;20100;-70
2023/05/01 03:13:55;;;;;;;6.90;3.70;;;7.30;99.90;;;;;;5013886;28;20049;-70
2023/05/01 03:16:21;;;;;;;7.13;3.83;;;7.50;99.90;;;;;;5012957;28;20064;-71
2023/05/01 03:18:47;;;;;;;6.03;4.03;;;7.40;99.90;;;;;;5012782;28;20046;-71
2023/05/01 03:21:13;;;;;;;7.10;3.83;;;7.50;99.90;;;;;;4996605;28;20053;-71
2023/05/01 03:23:38;;;;;;;7.63;4.13;;;7.20;99.90;;;;;;5013271;28;20038;-71
2023/05/01 03:26:05;;;;;;;5.90;4.05;;;7.30;99.90;;;;;;5012221;28;20144;-71
2023/05/01 03:28:31;;;;;;;5.78;3.47;;;7.50;99.90;;;;;;5013708;28;20046;-71
2023/05/01 03:30:56;;;;;;;8.55;4.47;;;7.30;99.90;;;;;;4997206;28;20408;-70
2023/05/01 03:33:22;;;;;;;6.80;4.10;;;7.10;99.90;;;;;;5013766;28;20565;-70
2023/05/01 03:35:57;;;;;;;8.23;4.38;;;7.20;99.90;;;;;;4996351;28;20053;-71
2023/05/01 03:38:23;;;;;;;7.65;4.20;;;7.30;99.90;;;;;;5014842;28;20104;-71
2023/05/01 03:40:49;;;;;;;8.65;4.55;;;7.20;99.90;;;;;;5013028;28;20179;-71
2023/05/01 03:43:14;;;;;;;7.40;3.50;;;7.20;99.90;;;;;;5012495;28;20042;-71
2023/05/01 03:45:40;;;;;;;9.25;4.20;;;7.20;99.90;;;;;;5014152;28;20052;-71
2023/05/01 03:48:06;;;;;;;8.73;3.83;;;7.40;99.90;;;;;;5012859;28;20064;-71
2023/05/01 03:50:31;;;;;;;6.15;4.07;;;7.60;99.90;;;;;;4996235;28;20124;-71
2023/05/01 03:52:57;;;;;;;6.38;4.30;;;7.40;99.90;;;;;;5012281;28;20045;-71
2023/05/01 03:55:23;;;;;;;9.13;4.43;;;7.40;99.90;;;;;;5012618;28;20493;-71
2023/05/01 03:57:48;;;;;;;9.65;4.18;;;7.00;99.90;;;;;;5014478;28;20050;-71
2023/05/01 04:00:14;;;;;;;9.02;4.10;;;7.40;99.90;;;;;;4999023;28;20470;-71
2023/05/01 04:02:40;;;;;;;7.25;3.97;;;7.00;99.90;;;;;;5016368;28;20050;-71
2023/05/01 04:05:06;;;;;;;7.03;3.58;;;7.10;99.90;;;;;;5017274;28;20049;-71
2023/05/01 04:07:32;;;;;;;7.18;4.10;;;7.10;99.90;;;;;;5017257;28;20050;-71
2023/05/01 04:09:57;;;;;;;6.93;3.92;;;7.00;99.90;;;;;;5017278;28;20133;-71
2023/05/01 04:12:23;;;;;;;8.05;4.35;;;7.10;99.90;;;;;;5015903;28;20038;-72
2023/05/01 04:14:49;;;;;;;6.90;4.20;;;7.00;99.90;;;;;;5015925;28;20049;-71
2023/05/01 04:17:14;;;;;;;5.82;4.13;;;7.30;99.90;;;;;;4999750;28;20108;-71
2023/05/01 04:19:40;;;;;;;9.35;4.38;;;6.90;99.90;;;;;;5016335;28;20045;-72
2023/05/01 04:22:06;;;;;;;7.22;4.35;;;7.20;99.90;;;;;;5017618;28;20045;-71
2023/05/01 04:24:32;;;;;;;6.10;3.95;;;6.90;99.90;;;;;;5015481;28;20088;-71
2023/05/01 04:26:57;;;;;;;9.10;4.13;;;7.00;99.90;;;;;;5015609;28;20042;-71
2023/05/01 04:29:23;;;;;;;9.55;4.05;;;7.70;99.90;;;;;;4999494;28;20046;-71
2023/05/01 04:31:49;;;;;;;5.88;3.72;;;7.00;99.90;;;;;;5015582;28;20104;-71
2023/05/01 04:34:15;;;;;;;6.97;3.45;;;6.80;99.90;;;;;;5016024;28;20137;-71
2023/05/01 04:36:40;;;;;;;8.82;4.18;;;6.80;99.90;;;;;;5015564;28;20042;-72
2023/05/01 04:39:06;;;;;;;9.40;4.63;;;7.10;99.90;;;;;;5016380;28;20068;-71
2023/05/01 04:41:32;;;;;;;8.90;4.57;;;7.00;99.90;;;;;;5016914;28;20124;-70
2023/05/01 04:43:58;;;;;;;7.60;3.92;;;7.10;99.90;;;;;;5016195;28;20049;-71
2023/05/01 04:46:23;;;;;;;9.93;4.82;;;7.00;99.90;;;;;;4999018;28;20049;-71
2023/05/01 04:48:49;;;;;;;7.90;3.97;;;7.10;99.90;;;;;;4999415;28;20057;-71
2023/05/01 04:51:15;;;;;;;7.05;4.05;;;7.10;99.90;;;;;;5014976;28;20061;-71
2023/05/01 04:53:41;;;;;;;7.13;4.43;;;7.10;99.90;;;;;;4982777;28;20089;-71
2023/05/01 04:56:06;;;;;;;9.32;4.50;;;7.10;99.90;;;;;;5015927;28;20140;-71
2023/05/01 04:58:32;;;;;;;9.27;4.43;;;7.70;99.90;;;;;;5016241;28;20065;-71
2023/05/01 05:00:58;;;;;;;9.60;4.68;;;7.30;99.90;;;;;;4998717;28;20049;-71
2023/05/01 05:03:23;;;;;;;8.43;4.40;;;7.30;99.90;;;;;;5015904;28;20034;-71
2023/05/01 05:05:49;;;;;;;8.65;4.60;;;7.30;99.90;;;;;;5016131;28;20157;-71
2023/05/01 05:08:15;;;;;;;9.77;4.38;;;7.30;99.90;;;;;;5016148;28;20471;-71
2023/05/01 05:10:40;;;;;;;8.00;4.55;;;7.40;99.90;;;;;;5014611;28;20053;-72
2023/05/01 05:13:06;;;;;;;7.72;4.60;;;7.50;99.90;;;;;;5015989;28;20085;-72
2023/05/01 05:15:32;;;;;;;8.65;5.03;;;7.70;99.90;;;;;;5014742;28;20142;-71
2023/05/01 05:17:57;;;;;;;7.13;5.00;;;7.60;99.90;;;;;;4999394;28;20108;-73
2023/05/01 05:20:23;;;;;;;9.65;5.45;;;7.60;99.90;;;;;;5014653;28;20046;-72
2023/05/01 05:22:49;;;;;;;8.57;5.55;;;7.80;99.90;;;;;;5014712;28;20104;-72
2023/05/01 05:25:15;;;;;;;8.00;5.30;;;7.80;99.90;;;;;;5014818;28;20515;-72
2023/05/01 05:27:40;;;;;;;10.20;6.43;;;7.80;99.90;;;;;;5014557;28;20068;-72
2023/05/01 05:30:07;;;;;;;12.70;6.38;;;7.80;99.90;;;;;;5014425;28;20049;-72
2023/05/01 05:32:33;;;;;;;11.45;6.18;;;7.90;99.90;;;;;;5014531;28;20137;-73
2023/05/01 05:34:59;;;;;;;8.77;5.72;;;8.20;99.90;;;;;;5016466;28;20089;-72
2023/05/01 05:37:24;;;;;;;9.63;5.03;;;8.10;99.90;;;;;;5015525;28;20078;-72
2023/05/01 05:39:53;;;;;;;7.70;5.57;;;8.20;99.90;;;;;;5015538;28;20050;-71
2023/05/01 05:42:19;;;;;;;10.57;5.43;;;8.20;99.90;;;;;;5015501;28;20076;-72
2023/05/01 05:44:45;;;;;;;10.65;5.63;;;8.30;99.90;;;;;;5014268;28;20060;-72
2023/05/01 05:47:10;;;;;;;7.45;4.95;;;8.60;99.90;;;;;;5015421;28;20046;-72
2023/05/01 05:49:36;;;;;;;8.98;4.85;;;8.40;99.90;;;;;;5014108;28;20052;-72
2023/05/01 05:52:02;;;;;;;11.93;4.93;;;8.50;99.90;;;;;;5015194;28;20112;-71
2023/05/01 05:54:27;;;;;;;10.45;5.28;;;8.70;99.90;;;;;;4997710;28;20053;-71
2023/05/01 05:56:53;;;;;;;8.73;4.75;;;8.70;99.90;;;;;;5015178;28;20057;-71
2023/05/01 05:59:19;;;;;;;10.02;5.00;;;8.60;99.90;;;;;;5015030;28;20050;-71
2023/05/01 06:01:44;;;;;;;9.50;4.97;;;8.90;99.90;;;;;;5013905;28;20493;-71
2023/05/01 06:04:12;;;;;;;10.68;5.18;;;8.80;99.90;;;;;;4981641;28;20052;-71
2023/05/01 06:06:38;;;;;;;9.32;4.63;;;8.80;99.90;;;;;;5014052;28;20052;-72
2023/05/01 06:09:04;;;;;;;8.10;4.93;;;9.00;99.90;;;;;;5014922;28;20038;-70
2023/05/01 06:11:30;;;;;;;9.18;4.78;;;8.90;99.90;;;;;;5014903;28;20115;-71
2023/05/01 06:13:57;;;;;;;9.27;5.10;;;8.90;99.90;;;;;;5013624;28;20038;-70
2023/05/01 06:16:22;;;;;;;7.20;5.05;;;9.00;99.90;;;;;;5014847;28;20096;-71
2023/05/01 06:18:48;;;;;;;7.10;4.82;;;8.90;99.90;;;;;;5014785;28;20081;-71
2023/05/01 06:21:15;;;;;;;10.10;4.55;;;9.10;99.90;;;;;;5014690;28;20045;-71
2023/05/01 06:23:40;;;;;;;7.60;4.55;;;9.10;99.90;;;;;;5013325;28;20413;-71
2023/05/01 06:26:06;;;;;;;9.75;4.80;;;9.10;99.90;;;;;;5013434;28;20054;-70
2023/05/01 06:28:32;;;;;;;7.78;4.60;;;9.20;99.90;;;;;;5014508;28;20053;-70
2023/05/01 06:30:58;;;;;;;8.05;4.70;;;9.20;99.90;;;;;;5014582;28;20042;-71
2023/05/01 06:33:23;;;;;;;6.68;5.05;;;9.30;99.90;;;;;;4996996;28;20042;-70
2023/05/01 06:35:49;;;;;;;9.40;4.85;;;9.30;99.90;;;;;;5014523;28;20052;-70
2023/05/01 06:38:15;;;;;;;8.35;4.57;;;9.40;99.90;;;;;;4997203;28;20092;-71
2023/05/01 06:40:41;;;;;;;7.25;4.50;;;9.40;99.90;;;;;;5014966;28;20060;-70
2023/05/01 06:43:07;;;;;;;6.90;4.45;;;9.50;99.90;;;;;;5014469;28;20046;-70
2023/05/01 06:45:33;;;;;;;7.30;4.32;;;9.50;99.90;;;;;;5013727;28;20393;-71
2023/05/01 06:47:58;;;;;;;7.32;4.78;;;9.60;99.90;;;;;;5014334;28;20041;-71
2023/05/01 06:50:24;;;;;;;7.65;4.90;;;9.70;99.90;;;;;;5014240;28;20125;-70
2023/05/01 06:52:50;;;;;;;10.23;4.97;;;9.70;99.90;;;;;;5014167;28;20095;-70
2023/05/01 06:55:16;;;;;;;7.13;4.50;;;9.80;99.90;;;;;;5014140;28;20085;-70
2023/05/01 06:57:41;;;;;;;8.30;4.60;;;9.80;99.90;;;;;;5014434;28;20100;-70
2023/05/01 07:00:09;;;;;;;7.43;4.43;;;9.80;99.90;;;;;;5014042;28;20092;-71
2023/05/01 07:02:36;;;;;;;9.77;4.75;;;9.80;99.90;;;;;;5014543;28;20046;-70
2023/05/01 07:05:02;;;;;;;8.10;4.45;;;9.90;99.90;;;;;;5012950;28;20061;-70
2023/05/01 07:07:29;;;;;;;9.27;5.00;;;9.90;99.90;;;;;;4996969;28;20133;-70
2023/05/01 07:09:55;;;;;;;8.77;4.45;;;10.00;99.90;;;;;;5013930;28;20082;-70
2023/05/01 07:12:22;;;;;;;8.30;4.72;;;10.00;99.90;;;;;;5013050;28;20482;-70
2023/05/01 07:14:47;;;;;;;6.55;4.55;;;10.10;99.90;;;;;;5013864;28;20128;-70
2023/05/01 07:17:13;;;;;;;7.47;4.78;;;10.20;99.90;;;;;;5013587;28;20088;-70
2023/05/01 07:19:39;;;;;;;7.82;4.38;;;10.30;99.90;;;;;;5013144;28;20038;-70
2023/05/01 07:22:04;;;;;;;8.73;4.50;;;10.30;99.90;;;;;;4996151;28;20505;-70
2023/05/01 07:24:30;;;;;;;6.60;4.32;;;10.40;99.90;;;;;;5012548;28;20129;-70
2023/05/01 07:26:56;;;;;;;11.35;4.75;;;10.50;99.90;;;;;;5013472;28;20125;-70
2023/05/01 07:29:22;;;;;;;8.45;4.68;;;10.60;99.90;;;;;;4996445;28;20046;-70
2023/05/01 07:31:48;;;;;;;7.35;4.55;;;10.70;99.90;;;;;;5014160;28;20048;-70
2023/05/01 07:34:15;;;;;;;9.20;4.20;;;10.80;99.90;;;;;;5015062;28;20528;-70
2023/05/01 07:36:40;;;;;;;8.80;4.07;;;10.90;99.90;;;;;;5018197;28;20511;-69
2023/05/01 07:39:06;;;;;;;9.45;4.50;;;10.90;99.90;;;;;;5017580;28;20050;-68
2023/05/01 07:41:32;;;;;;;6.35;3.97;;;11.00;99.90;;;;;;5019245;28;20050;-69
2023/05/01 07:43:58;;;;;;;8.63;4.57;;;11.00;99.90;;;;;;5018262;28;20038;-70
2023/05/01 07:46:24;;;;;;;5.82;3.65;;;11.10;99.90;;;;;;5016756;28;20057;-69
2023/05/01 07:48:50;;;;;;;5.65;3.90;;;11.10;99.90;;;;;;5017402;28;20128;-69
2023/05/01 07:51:17;;;;;;;7.68;4.05;;;11.10;99.90;;;;;;5017658;28;20088;-68
2023/05/01 07:53:43;;;;;;;6.80;3.38;;;11.10;99.90;;;;;;5016355;28;20116;-68
2023/05/01 07:56:09;;;;;;;5.88;4.07;;;11.20;99.90;;;;;;5017796;28;20054;-69
2023/05/01 07:58:36;;;;;;;6.65;3.97;;;11.30;99.90;;;;;;5018351;28;20555;-68
2023/05/01 08:01:02;;;;;;;8.63;3.70;;;11.40;99.90;;;;;;5017693;28;20401;-69
2023/05/01 08:03:29;;;;;;;9.27;4.85;;;11.40;99.90;;;;;;5017377;28;20046;-68
2023/05/01 08:05:56;;;;;;;7.70;4.05;;;11.40;99.90;;;;;;5016089;28;20176;-68
2023/05/01 08:08:22;;;;;;;7.70;3.88;;;11.40;99.90;;;;;;5017410;28;20088;-68
2023/05/01 08:10:48;;;;;;;5.68;3.58;;;11.40;99.90;;;;;;5017709;28;20085;-69
2023/05/01 08:13:13;;;;;;;9.02;4.32;;;11.40;99.90;;;;;;5016036;28;20539;-69
2023/05/01 08:15:41;;;;;;;7.85;3.92;;;11.50;99.90;;;;;;5016148;28;20133;-69
2023/05/01 08:18:08;;;;;;;7.22;4.10;;;11.50;99.90;;;;;;4999995;28;20076;-71
2023/05/01 08:20:37;;;;;;;7.97;4.22;;;11.50;99.90;;;;;;5015948;28;20042;-69
2023/05/01 08:23:03;;;;;;;8.15;4.72;;;11.60;99.90;;;;;;5015988;28;20092;-69
2023/05/01 08:25:30;;;;;;;7.68;3.97;;;11.60;99.90;;;;;;5017074;28;20138;-69
2023/05/01 08:27:56;;;;;;;8.38;4.10;;;11.70;99.90;;;;;;5015880;28;20394;-69
2023/05/01 08:30:22;;;;;;;7.95;4.28;;;11.70;99.90;;;;;;5016444;28;20042;-68
2023/05/01 08:32:48;;;;;;;6.60;4.25;;;11.80;99.90;;;;;;5017641;28;20110;-70
2023/05/01 08:35:13;;;;;;;8.35;4.40;;;11.80;99.90;;;;;;5015915;28;20060;-69
2023/05/01 08:37:39;;;;;;;6.63;4.07;;;11.90;99.90;;;;;;5015338;28;20444;-70
2023/05/01 08:40:07;;;;;;;6.35;3.70;;;11.90;99.90;;;;;;5015557;28;20054;-69
2023/05/01 08:42:37;;;;;;;8.18;4.05;;;12.00;99.90;;;;;;5015728;28;20050;-70
2023/05/01 08:45:13;;;;;;;6.75;4.10;;;12.10;99.90;;;;;;5016674;28;20072;-69
2023/05/01 08:47:39;;;;;;;9.63;4.43;;;12.20;99.90;;;;;;5016695;28;20522;-69
2023/05/01 08:50:12;;;;;;;6.50;4.10;;;12.30;99.90;;;;;;5015527;28;20556;-69
2023/05/01 08:52:42;;;;;;;8.07;3.83;;;12.40;99.90;;;;;;5016543;28;20089;-68
2023/05/01 08:55:14;;;;;;;9.57;4.10;;;12.40;99.90;;;;;;5016300;28;20422;-69
2023/05/01 08:57:47;;;;;;;8.57;4.00;;;12.50;99.90;;;;;;5016835;28;20054;-68
2023/05/01 09:00:18;;;;;;;6.65;4.20;;;12.60;99.90;;;;;;5016332;28;20060;-69
2023/05/01 09:02:46;;;;;;;6.82;3.75;;;12.70;99.90;;;;;;5016677;28;20045;-68
2023/05/01 09:05:14;;;;;;;5.35;3.95;;;12.70;99.90;;;;;;5016210;28;20046;-68
2023/05/01 09:07:41;;;;;;;7.25;3.58;;;12.80;99.90;;;;;;5016146;28;20081;-69
2023/05/01 09:10:07;;;;;;;5.72;4.30;;;12.90;99.90;;;;;;5015164;28;20050;-69
2023/05/01 09:12:34;;;;;;;7.45;4.45;;;13.00;99.90;;;;;;5015898;28;20044;-70
2023/05/01 09:15:02;;;;;;;6.15;3.38;;;13.10;99.90;;;;;;5016135;28;20049;-69
2023/05/01 09:17:31;;;;;;;5.15;3.00;;;13.10;99.90;;;;;;5016066;28;20092;-69
2023/05/01 09:19:57;;;;;;;6.57;3.85;;;13.20;99.90;;;;;;5015782;28;20050;-70
2023/05/01 09:22:23;;;;;;;5.65;3.80;;;13.30;99.90;;;;;;4998641;28;20050;-69
2023/05/01 09:24:49;;;;;;;5.97;2.75;;;13.30;99.90;;;;;;5015858;28;20053;-69
2023/05/01 09:27:15;;;;;;;6.68;2.78;;;13.40;99.90;;;;;;4982835;28;20053;-69
2023/05/01 09:29:46;;;;;;;5.50;3.28;;;13.50;99.90;;;;;;5015755;28;20045;-69
2023/05/01 09:32:12;;;;;;;5.03;3.00;;;13.50;99.90;;;;;;5016583;28;20057;-69
2023/05/01 09:34:38;;;;;;;5.25;2.72;;;13.60;99.90;;;;;;4998574;28;20417;-69
2023/05/01 09:37:03;;;;;;;6.35;3.15;;;13.70;99.90;;;;;;5015693;28;20103;-70
2023/05/01 09:39:29;;;;;;;4.45;2.80;;;13.70;99.90;;;;;;5015483;28;20145;-69
2023/05/01 09:41:55;;;;;;;4.88;2.97;;;13.70;99.90;;;;;;5015629;28;20537;-69
2023/05/01 09:44:21;;;;;;;7.63;3.20;;;13.80;99.90;;;;;;5015725;28;20127;-68
2023/05/01 09:46:48;;;;;;;4.95;2.60;;;13.80;99.90;;;;;;5015555;28;20046;-69
2023/05/01 09:49:14;;;;;;;6.05;2.78;;;13.80;99.90;;;;;;5015147;28;20506;-69
2023/05/01 09:51:41;;;;;;;5.30;2.92;;;13.90;99.90;;;;;;4998943;28;20058;-70
2023/05/01 09:54:19;;;;;;;5.75;2.80;;;13.90;99.90;;;;;;5014715;28;20100;-70
2023/05/01 09:56:48;;;;;;;5.72;2.63;;;14.00;99.90;;;;;;5014594;28;20084;-71
2023/05/01 09:59:16;;;;;;;4.53;2.78;;;14.10;99.90;;;;;;5015224;28;20057;-69
2023/05/01 10:01:44;;;;;;;4.35;2.45;;;14.10;99.90;;;;;;4997890;28;20169;-72
2023/05/01 10:04:12;;;;;;;6.18;2.20;;;14.20;99.90;;;;;;5015147;28;20042;-71
2023/05/01 10:06:38;;;;;;;7.72;2.40;;;14.20;99.90;;;;;;5014611;28;20144;-69
2023/05/01 10:09:16;;;;;;;4.72;2.30;;;14.30;99.90;;;;;;5015054;28;20092;-70
2023/05/01 10:11:53;;;;;;;5.30;2.58;;;14.40;99.90;;;;;;5015161;28;20049;-70
2023/05/01 10:14:20;;;;;;;5.68;2.60;;;14.50;99.90;;;;;;5014208;28;20482;-71
2023/05/01 10:16:45;;;;;;;2.67;2.03;;;14.50;99.90;;;;;;4997653;28;20120;-69
2023/05/01 10:19:12;;;;;;;5.35;1.92;;;14.50;99.90;;;;;;5014981;28;20132;-69
2023/05/01 10:21:38;;;;;;;4.32;2.00;;;14.60;99.90;;;;;;4997627;28;20397;-70
2023/05/01 10:24:04;;;;;;;4.60;1.90;;;14.60;99.90;;;;;;5013641;28;20046;-70
2023/05/01 10:26:33;;;;;;;2.85;1.60;;;14.70;99.90;;;;;;5014556;28;20045;-70
2023/05/01 10:29:00;;;;;;;4.65;1.88;;;14.70;99.90;;;;;;5013692;28;20050;-68
2023/05/01 10:31:26;;;;;;;4.97;1.50;;;14.80;99.90;;;;;;5015103;28;20121;-69
2023/05/01 10:33:53;;;;;;;4.72;1.65;;;14.90;99.90;;;;;;5015817;28;20049;-67
2023/05/01 10:36:27;;;;;;;4.43;1.65;;;14.90;99.90;;;;;;5014614;28;20081;-68
2023/05/01 10:38:53;;;;;;;4.70;1.88;;;15.00;99.90;;;;;;5014374;28;20052;-69
2023/05/01 10:41:56;;;;;;;4.65;1.70;;;15.00;99.90;;;;;;4997006;28;20081;-68
2023/05/01 10:44:23;;;;;;;3.85;1.92;;;15.10;99.90;;;;;;5014520;28;20137;-68
2023/05/01 10:46:49;;;;;;;3.75;1.70;;;15.10;99.90;;;;;;5014463;28;20087;-67
2023/05/01 10:49:16;;;;;;;4.75;1.58;;;15.20;99.90;;;;;;5013242;28;20481;-68
2023/05/01 10:51:57;;;;;;;6.90;1.80;;;15.20;99.90;;;;;;5014410;28;20041;-68
2023/05/01 10:54:26;;;;;;;5.38;1.30;;;15.20;99.90;;;;;;5014232;28;20076;-70
2023/05/01 10:56:54;;;;;;;2.80;1.40;;;15.30;99.90;;;;;;5014642;28;20133;-70
2023/05/01 10:59:20;;;;;;;4.05;1.70;;;15.40;99.90;;;;;;5014179;28;20050;-69
2023/05/01 11:01:47;;;;;;;4.60;1.95;;;15.40;99.90;;;;;;5013172;28;20533;-74
2023/05/01 11:04:20;;;;;;;3.65;1.95;;;15.40;99.90;;;;;;5014055;28;20053;-71
2023/05/01 11:07:04;;;;;;;3.78;1.70;;;15.50;99.90;;;;;;5013656;28;20065;-69
2023/05/01 11:09:42;;;;;;;4.30;1.80;;;15.50;99.90;;;;;;5013120;28;20387;-74
2023/05/01 11:12:13;;;;;;;5.25;1.88;;;15.60;99.90;;;;;;5013934;28;20052;-69
2023/05/01 11:15:01;;;;;;;5.32;2.30;;;15.70;99.90;;;;;;5013805;28;20533;-70
2023/05/01 11:17:57;;;;;;;6.65;2.65;;;15.70;99.90;;;;;;5013212;28;20076;-70
2023/05/01 11:20:25;;;;;;;5.35;2.63;;;15.70;99.90;;;;;;5001225;28;20283;-70
2023/05/01 11:22:52;;;;;;;5.95;2.80;;;15.80;99.90;;;;;;5014030;28;20046;-69
2023/05/01 11:25:20;;;;;;;7.65;3.00;;;15.80;99.90;;;;;;5013992;28;20482;-70
2023/05/01 11:27:51;;;;;;;6.75;2.70;;;15.80;99.90;;;;;;5013949;28;20056;-71
2023/05/01 11:30:17;;;;;;;4.60;2.88;;;15.90;99.90;;;;;;5013880;28;20046;-67
2023/05/01 11:32:45;;;;;;;7.32;3.17;;;15.90;99.90;;;;;;5013729;28;20049;-69
2023/05/01 11:35:29;;;;;;;5.28;2.70;;;15.90;99.90;;;;;;5013924;28;20054;-69
2023/05/01 11:37:55;;;;;;;5.07;3.00;;;16.00;99.90;;;;;;5013814;28;20137;-70
2023/05/01 11:40:22;;;;;;;4.75;3.03;;;16.10;99.90;;;;;;5014029;28;20493;-69
2023/05/01 11:42:49;;;;;;;4.80;2.88;;;16.20;99.90;;;;;;5014572;28;20129;-69
2023/05/01 11:45:15;;;;;;;6.82;2.97;;;16.30;99.90;;;;;;5012818;28;20481;-69
2023/05/01 11:47:41;;;;;;;4.72;1.98;;;16.30;99.90;;;;;;4996481;28;20044;-69
2023/05/01 11:50:08;;;;;;;4.90;2.25;;;16.40;99.90;;;;;;5013660;28;20189;-70
2023/05/01 11:52:44;;;;;;;4.35;2.20;;;16.50;99.90;;;;;;4996401;28;20474;-69
2023/05/01 11:55:10;;;;;;;3.88;2.03;;;16.60;99.90;;;;;;5012446;28;20044;-70
2023/05/01 11:57:51;;;;;;;4.03;1.80;;;16.70;99.90;;;;;;4995863;28;20058;-70
2023/05/01 12:00:28;;;;;;;4.03;1.67;;;16.70;99.40;;;;;;5013499;28;20081;-67
2023/05/01 12:02:56;;;;;;;2.72;1.10;;;16.70;99.00;;;;;;5013547;28;20129;-69
2023/05/01 12:05:22;;;;;;;2.28;1.13;;;16.80;98.60;;;;;;5013583;28;20101;-68
2023/05/01 12:07:48;;;;;;;3.50;1.00;;;16.80;97.90;;;;;;5013936;28;20398;-77
2023/05/01 12:10:15;;;;;;;2.13;0.90;;;16.90;97.60;;;;;;4979657;28;20045;-71
2023/05/01 12:12:41;;;;;;;1.85;1.10;;;16.90;96.70;;;;;;5013001;28;20537;-73
2023/05/01 12:15:08;;;;;;;2.28;0.82;;;16.90;96.70;;;;;;5013433;28;20133;-76
2023/05/01 12:17:35;;;;;;;1.83;0.75;;;17.00;96.40;;;;;;5014159;28;20056;-75
2023/05/01 12:20:01;;;;;;;2.10;0.80;;;17.10;96.00;;;;;;5013271;28;20112;-71
2023/05/01 12:22:28;;;;;;;2.55;0.73;;;17.10;95.50;;;;;;5017090;28;20077;-72
2023/05/01 12:24:54;;;;;;;1.65;0.70;;;17.20;95.30;;;;;;5017014;28;20132;-70
2023/05/01 12:27:20;;;;;;;1.27;0.70;;;17.20;94.60;;;;;;5015814;28;20088;-71
2023/05/01 12:29:47;;;;;;;1.17;0.70;;;17.30;94.20;;;;;;5017623;28;20462;-72
2023/05/01 12:32:15;;;;;;;3.17;0.80;;;17.40;93.70;;;;;;5016811;28;20170;-69
2023/05/01 12:34:41;;;;;;;2.35;0.85;;;17.30;92.90;;;;;;5015944;28;20046;-70
2023/05/01 12:37:08;;;;;;;1.77;0.80;;;17.30;92.80;;;;;;5016816;28;20100;-72
2023/05/01 12:39:43;;;;;;;3.20;0.75;;;17.30;93.10;;;;;;4999744;28;20050;-70
2023/05/01 12:42:15;;;;;;;1.33;0.73;;;17.20;93.70;;;;;;5015571;28;20180;-70
2023/05/01 12:44:42;;;;;;;1.70;0.90;;;17.20;93.70;;;;;;5015675;28;20540;-69
2023/05/01 12:47:08;;;;;;;4.43;0.90;;;17.20;93.80;;;;;;5016261;28;20048;-75
2023/05/01 12:49:39;;;;;;;2.42;0.77;;;17.20;93.60;;;;;;5015803;28;20042;-69
2023/05/01 12:52:07;;;;;;;1.77;0.60;;;17.30;93.10;;;;;;5016403;28;20107;-67
2023/05/01 12:54:36;;;;;;;0.88;0.60;;;17.30;92.70;;;;;;5016311;28;20046;-68
2023/05/01 12:57:10;;;;;;;1.30;0.60;;;17.40;92.00;;;;;;5016480;28;20089;-70